BIKF Airport Information

Runway Information
Runway 02 Length 10019 ft width 197 ft
Elevation 137 ft Threshold 19 ft Heading 360
Runway 20 Length 10019 ft Width 197 ft
Elevation 163 ft Threshold 19 ft Heading 180
Runway 11 Length 10056 ft width 197 ft
Elevation 111 ft Threshold 43 ft Heading 90
Runway 29 Length 10056 ft Width 197 ft
Elevation 171 ft Threshold 43 ft Heading 270
Airport Frequencies
Type A/G Name AIR GND Frequency 131.9 MHZ
Type APP Name APP Frequency 119.3 MHZ
Type ATIS Name ATIS Frequency 128.3 MHZ
Type DEP Name DEP Frequency 119.3 MHZ
Type GND Name GND Frequency 121.9 MHZ
Type OPS Name BASE OPS Frequency 129 MHZ
Type PMSV Name PMSV METR Frequency 125 MHZ
Type TWR Name TWR Frequency 118.3 MHZ
Airport Navaids
Type VORTAC Name Keflavik Frequency 112000 KHZ
Type NDB Name Keflavik Frequency 392 KHZ
Type NDB Name Oscar Kilo Frequency 364 KHZ
Airport Weather Information & NOTAM
ADDS - METARS form results

(0651 UTC 22 April 2018)
 
METAR text: BIKF 220630Z 01015KT 9999 FEW012 02/01 Q1003
Conditions at: BIKF (KEFLAVIK (CIV/MI, IS) observed 0630 UTC 22 April 2018
Temperature: 2.0°C (36°F)
Dewpoint: 1.0°C (34°F) [RH = 93%]
Pressure (altimeter): 29.62 inches Hg (1003.0 mb)
Winds: from the N (10 degrees) at 17 MPH (15 knots; 7.8 m/s)
Visibility: 6 or more miles (10+ km)
Ceiling: at least 12,000 feet AGL
Clouds: few clouds at 1200 feet AGL
Weather: no significant weather observed at this time

METAR text: BIKF 220600Z 01015KT 9999 FEW012 02/01 Q1003
Conditions at: BIKF (KEFLAVIK (CIV/MI, IS) observed 0600 UTC 22 April 2018
Temperature: 2.0°C (36°F)
Dewpoint: 1.0°C (34°F) [RH = 93%]
Pressure (altimeter): 29.62 inches Hg (1003.0 mb)
Winds: from the N (10 degrees) at 17 MPH (15 knots; 7.8 m/s)
Visibility: 6 or more miles (10+ km)
Ceiling: at least 12,000 feet AGL
Clouds: few clouds at 1200 feet AGL
Weather: no significant weather observed at this time